Weston-Spr-Mare, United Kingdom
Current Conditions -  °F | °C
As of 6:20 PM on Thursday 27 Nov 2014 (Local Time) from EGGD Reporting Station
Scattered Clouds Scattered Clouds  
Wind Chill: 38°   Ceiling: Unl
Heat Index: 45°   Visibility: 4mi
Dew Point: 43°   Wind: 14mph
Humidity: 93%   Direction: 90°E
Pressure: 29.5"   Gusts: NA
Location:  51.33°N, 2.98°W
Report Text: EGGD 271820Z 09012KT 7000 SCT009 07/06 Q0999
Loading
Personal Weather Stations






























Interactive Weather Map New forecast layout! Learn more

10-Day Weather Forecast

Advertisements
Track Severe Weather on mobile